createdAt,value
2018-09-24T00:01:27.828Z,7.95
2018-09-24T00:06:25.211Z,7.91
2018-09-24T00:11:28.025Z,7.93
2018-09-24T00:16:25.463Z,7.87
2018-09-24T00:21:22.831Z,7.84
2018-09-24T00:26:20.209Z,7.83
2018-09-24T00:31:17.571Z,7.85
2018-09-24T00:36:14.932Z,7.83
2018-09-24T00:41:17.178Z,7.85
2018-09-24T00:46:14.895Z,7.76
2018-09-24T00:51:12.259Z,7.84
2018-09-24T00:56:09.651Z,7.85
2018-09-24T01:01:07.031Z,7.79
2018-09-24T01:06:04.440Z,7.82
2018-09-24T01:11:05.815Z,7.85
2018-09-24T01:16:03.286Z,7.84
2018-09-24T01:21:01.286Z,7.75
2018-09-24T01:25:58.684Z,7.67
2018-09-24T01:30:56.103Z,7.64
2018-09-24T01:35:53.513Z,7.51
2018-09-24T01:40:51.446Z,7.52
2018-09-24T01:45:48.872Z,7.50
2018-09-24T01:50:46.329Z,7.50
2018-09-24T01:55:48.598Z,7.45
2018-09-24T02:00:45.971Z,7.49
2018-09-24T02:05:43.340Z,7.39
2018-09-24T02:10:40.722Z,7.38
2018-09-24T02:15:38.099Z,7.38
2018-09-24T02:20:44.072Z,7.40
2018-09-24T02:25:41.500Z,7.30
2018-09-24T02:30:38.919Z,7.30
2018-09-24T02:35:36.404Z,7.25
2018-09-24T02:40:33.851Z,7.13
2018-09-24T02:45:31.268Z,7.14
2018-09-24T02:50:35.478Z,7.11
2018-09-24T02:55:32.871Z,7.08
2018-09-24T03:00:30.288Z,6.81
2018-09-24T03:05:27.714Z,6.67
2018-09-24T03:10:25.129Z,7.10
2018-09-24T03:15:22.546Z,7.00
2018-09-24T03:20:21.252Z,6.97
2018-09-24T03:25:19.248Z,6.56
2018-09-24T03:30:16.715Z,6.30
2018-09-24T03:35:14.137Z,6.04
2018-09-24T03:40:11.588Z,5.92
2018-09-24T03:45:09.008Z,5.77
2018-09-24T03:50:06.439Z,6.07
2018-09-24T03:55:03.896Z,6.52
2018-09-24T04:00:01.383Z,5.91
2018-09-24T04:05:04.351Z,5.81
2018-09-24T04:10:07.421Z,5.78
2018-09-24T04:15:10.388Z,5.60
2018-09-24T04:20:13.415Z,5.61
2018-09-24T04:25:16.431Z,6.21
2018-09-24T04:30:19.536Z,6.24
2018-09-24T04:35:22.524Z,6.24
2018-09-24T04:40:25.736Z,5.90
2018-09-24T04:45:28.752Z,5.75
2018-09-24T04:50:31.737Z,5.37
2018-09-24T04:55:34.635Z,5.66
2018-09-24T05:00:37.765Z,5.10
2018-09-24T05:05:40.676Z,5.12
2018-09-24T05:10:43.703Z,5.12
2018-09-24T05:15:46.628Z,5.62
2018-09-24T05:20:49.699Z,5.27
2018-09-24T05:25:53.600Z,5.25
2018-09-24T05:30:56.710Z,5.20
2018-09-24T05:35:59.766Z,5.57
2018-09-24T05:41:03.705Z,5.94
2018-09-24T05:46:06.876Z,6.05
2018-09-24T05:51:10.176Z,8.16
2018-09-24T05:56:13.123Z,9.67
2018-09-24T06:01:16.214Z,11.03
2018-09-24T06:06:19.209Z,12.09
2018-09-24T06:11:27.487Z,13.28
2018-09-24T06:16:30.631Z,13.54
2018-09-24T06:21:33.676Z,13.14
2018-09-24T06:26:36.836Z,14.57
2018-09-24T06:31:39.947Z,14.29
2018-09-24T06:36:42.984Z,14.44
2018-09-24T06:41:55.588Z,10.99
2018-09-24T06:46:58.655Z,10.25
2018-09-24T06:52:01.633Z,8.62
2018-09-24T06:57:04.711Z,8.42
2018-09-24T07:02:07.828Z,8.47
2018-09-24T07:07:11.022Z,8.42
2018-09-24T07:12:14.787Z,8.55
2018-09-24T07:17:17.819Z,8.67
2018-09-24T07:22:20.903Z,8.88
2018-09-24T07:27:23.992Z,9.12
2018-09-24T07:32:27.020Z,8.93
2018-09-24T07:37:29.952Z,9.17
2018-09-24T07:42:33.088Z,9.41
2018-09-24T07:47:36.202Z,9.39
2018-09-24T07:52:39.364Z,9.61
2018-09-24T07:57:42.392Z,10.09
2018-09-24T08:02:47.805Z,10.08
2018-09-24T08:07:52.189Z,10.19
2018-09-24T08:12:55.369Z,10.27
2018-09-24T08:17:58.250Z,10.21
2018-09-24T08:23:01.356Z,10.52
2018-09-24T08:28:04.317Z,10.74
2018-09-24T08:33:07.444Z,10.86
2018-09-24T08:38:10.727Z,11.07
2018-09-24T08:43:13.839Z,11.29
2018-09-24T08:48:16.859Z,11.24
2018-09-24T08:53:20.555Z,11.42
2018-09-24T08:58:23.498Z,11.36
2018-09-24T09:03:26.611Z,11.65
2018-09-24T09:08:29.662Z,11.87
2018-09-24T09:13:39.508Z,11.99
2018-09-24T09:18:42.633Z,12.22
2018-09-24T09:23:46.336Z,11.92
2018-09-24T09:28:50.396Z,12.17
2018-09-24T09:33:53.554Z,12.46
2018-09-24T09:38:56.662Z,12.38
2018-09-24T09:44:00.671Z,12.89
2018-09-24T09:49:03.684Z,12.74
2018-09-24T09:54:06.689Z,12.83
2018-09-24T09:59:09.836Z,12.76
2018-09-24T10:04:13.951Z,12.59
2018-09-24T10:09:16.937Z,12.83
2018-09-24T10:14:20.068Z,13.00
2018-09-24T10:19:23.228Z,13.11
2018-09-24T10:24:26.580Z,13.14
2018-09-24T10:29:29.643Z,12.94
2018-09-24T10:34:32.731Z,13.64
2018-09-24T10:39:35.775Z,13.72
2018-09-24T10:44:38.795Z,13.87
2018-09-24T10:49:41.763Z,13.66
2018-09-24T10:54:45.311Z,14.11
2018-09-24T10:59:48.315Z,13.49
2018-09-24T11:04:51.373Z,13.89
2018-09-24T11:09:54.475Z,13.78
2018-09-24T11:14:57.684Z,13.78
2018-09-24T11:20:00.683Z,13.89
2018-09-24T11:25:03.799Z,13.37
2018-09-24T11:30:06.932Z,13.45
2018-09-24T11:35:10.172Z,14.18
2018-09-24T11:40:13.251Z,13.92
2018-09-24T11:45:16.372Z,14.28
2018-09-24T11:50:19.575Z,14.71
2018-09-24T11:55:22.723Z,14.73
2018-09-24T12:00:25.592Z,14.37
2018-09-24T12:05:28.623Z,14.36
2018-09-24T12:10:31.647Z,13.98
2018-09-24T12:15:34.636Z,14.57
2018-09-24T12:20:37.861Z,13.84
2018-09-24T12:25:40.840Z,11.82
2018-09-24T12:30:43.814Z,11.17
2018-09-24T12:35:46.915Z,11.24
2018-09-24T12:40:49.868Z,12.16
2018-09-24T12:45:52.899Z,11.98
2018-09-24T12:50:58.494Z,11.98
2018-09-24T12:56:01.612Z,11.75
2018-09-24T13:01:05.140Z,11.38
2018-09-24T13:07:11.621Z,11.47
2018-09-24T13:12:15.559Z,11.31
2018-09-24T13:17:18.523Z,11.17
2018-09-24T13:22:21.568Z,12.14
2018-09-24T13:27:24.742Z,12.04
2018-09-24T13:32:27.895Z,12.34
2018-09-24T13:37:30.940Z,12.57
2018-09-24T13:42:35.405Z,12.85
2018-09-24T13:47:38.436Z,13.20
2018-09-24T13:52:41.450Z,12.97
2018-09-24T13:57:44.487Z,13.12
2018-09-24T14:02:47.698Z,13.99
2018-09-24T14:07:50.838Z,13.37
2018-09-24T14:12:54.854Z,12.98
2018-09-24T14:17:58.170Z,13.09
2018-09-24T14:23:01.434Z,13.41
2018-09-24T14:28:14.062Z,13.54
2018-09-24T14:33:17.247Z,13.61
2018-09-24T14:38:20.519Z,13.44
2018-09-24T14:43:23.538Z,13.43
2018-09-24T14:48:26.878Z,13.06
2018-09-24T14:53:31.107Z,12.80
2018-09-24T14:58:35.718Z,12.90
2018-09-24T15:03:43.528Z,12.96
2018-09-24T15:08:48.513Z,12.77
2018-09-24T15:13:51.805Z,12.45
2018-09-24T15:18:56.130Z,12.28
2018-09-24T15:24:01.012Z,12.18
2018-09-24T15:29:06.656Z,12.21
2018-09-24T15:34:10.868Z,12.17
2018-09-24T15:39:15.427Z,12.16
2018-09-24T15:44:19.032Z,12.46
2018-09-24T15:49:22.263Z,12.73
2018-09-24T15:59:41.314Z,12.40
2018-09-24T16:04:44.236Z,12.46
2018-09-24T16:09:48.204Z,12.43
2018-09-24T16:14:52.498Z,12.54
2018-09-24T16:19:55.888Z,12.56
2018-09-24T16:25:00.048Z,12.49
2018-09-24T16:30:05.475Z,10.65
2018-09-24T16:35:08.472Z,9.96
2018-09-24T16:40:11.591Z,9.96
2018-09-24T16:45:14.899Z,10.64
2018-09-24T16:50:17.900Z,10.71
2018-09-24T16:55:21.791Z,10.26
2018-09-24T17:00:24.805Z,10.19
2018-09-24T17:05:27.851Z,9.97
2018-09-24T17:10:30.815Z,9.78
2018-09-24T17:15:34.024Z,9.63
2018-09-24T17:20:37.027Z,9.09
2018-09-24T17:25:40.100Z,9.19
2018-09-24T17:30:43.744Z,9.09
2018-09-24T17:35:46.880Z,9.19
2018-09-24T17:40:50.539Z,9.07
2018-09-24T17:45:54.575Z,8.95
2018-09-24T17:50:57.756Z,8.90
2018-09-24T17:56:03.136Z,8.62
2018-09-24T18:01:07.063Z,7.96
2018-09-24T18:06:10.913Z,7.72
2018-09-24T18:11:16.418Z,8.14
2018-09-24T18:16:20.339Z,8.03
2018-09-24T18:21:26.268Z,7.79
2018-09-24T18:26:31.096Z,7.64
2018-09-24T18:31:35.504Z,7.83
2018-09-24T18:36:39.531Z,7.97
2018-09-24T18:41:43.373Z,8.01
2018-09-24T18:46:47.867Z,7.95
2018-09-24T18:51:51.948Z,7.80
2018-09-24T18:56:56.976Z,7.58
2018-09-24T19:02:02.608Z,7.12
2018-09-24T19:07:08.145Z,7.17
2018-09-24T19:12:11.771Z,6.94
2018-09-24T19:17:16.054Z,7.56
2018-09-24T19:22:19.472Z,7.41
2018-09-24T19:27:24.036Z,7.46
2018-09-24T19:32:27.907Z,7.29
2018-09-24T19:37:32.050Z,7.55
2018-09-24T19:42:36.401Z,7.64
2018-09-24T19:47:40.518Z,7.01
2018-09-24T19:52:44.674Z,7.21
2018-09-24T19:57:49.027Z,7.49
2018-09-24T20:02:53.277Z,7.63
2018-09-24T20:07:58.565Z,7.60
2018-09-24T20:13:02.988Z,7.47
2018-09-24T20:18:07.453Z,7.63
2018-09-24T20:23:11.943Z,7.45
2018-09-24T20:28:16.574Z,6.83
2018-09-24T20:33:20.732Z,6.78
2018-09-24T20:38:25.141Z,7.21
2018-09-24T20:43:32.233Z,6.99
2018-09-24T20:48:37.550Z,7.00
2018-09-24T20:53:42.281Z,6.84
2018-09-24T20:58:46.706Z,7.04
2018-09-24T21:03:50.902Z,6.59
2018-09-24T21:08:55.284Z,6.02
2018-09-24T21:13:59.885Z,6.09
2018-09-24T21:19:04.749Z,5.87
2018-09-24T21:24:09.166Z,5.59
2018-09-24T21:29:14.045Z,5.42
2018-09-24T21:34:18.481Z,5.33
2018-09-24T21:39:22.795Z,5.15
2018-09-24T21:44:28.701Z,5.12
2018-09-24T21:49:33.198Z,5.18
2018-09-24T21:54:38.311Z,5.07
2018-09-24T21:59:43.125Z,5.06
2018-09-24T22:04:54.453Z,4.98
2018-09-24T22:10:00.017Z,4.92
2018-09-24T22:15:03.761Z,4.81
2018-09-24T22:20:07.619Z,4.72
2018-09-24T22:25:11.358Z,4.71
2018-09-24T22:30:15.046Z,4.56
2018-09-24T22:35:18.902Z,4.57
2018-09-24T22:40:22.624Z,4.60
2018-09-24T22:45:26.448Z,4.48
2018-09-24T22:50:30.208Z,4.38
2018-09-24T22:55:33.981Z,4.26
2018-09-24T23:00:37.621Z,4.21
2018-09-24T23:05:41.520Z,4.21
2018-09-24T23:10:45.277Z,4.06
2018-09-24T23:15:49.226Z,4.04
2018-09-24T23:20:53.002Z,4.20
2018-09-24T23:25:56.878Z,4.15
2018-09-24T23:31:00.859Z,4.08
2018-09-24T23:36:04.491Z,4.00
2018-09-24T23:41:08.341Z,4.02
2018-09-24T23:46:12.201Z,3.87
2018-09-24T23:51:16.148Z,3.78
2018-09-24T23:56:19.953Z,3.80
